sensor_id;sensor_type;location;lat;lon;timestamp;temperature;humidity
16976;DHT22;8604;48.148;-1.786;2024-03-06T00:00:23;3.80;99.90
16976;DHT22;8604;48.148;-1.786;2024-03-06T00:02:52;3.70;99.90
16976;DHT22;8604;48.148;-1.786;2024-03-06T00:05:36;3.60;99.90
16976;DHT22;8604;48.148;-1.786;2024-03-06T00:08:06;3.50;99.90
16976;DHT22;8604;48.148;-1.786;2024-03-06T00:10:35;3.50;99.90
16976;DHT22;8604;48.148;-1.786;2024-03-06T00:13:19;3.40;99.90
16976;DHT22;8604;48.148;-1.786;2024-03-06T00:15:47;3.40;99.90
16976;DHT22;8604;48.148;-1.786;2024-03-06T00:18:16;3.30;99.90
16976;DHT22;8604;48.148;-1.786;2024-03-06T00:20:54;3.30;99.90
16976;DHT22;8604;48.148;-1.786;2024-03-06T00:23:24;3.30;99.90
16976;DHT22;8604;48.148;-1.786;2024-03-06T00:25:53;3.20;99.90
16976;DHT22;8604;48.148;-1.786;2024-03-06T00:28:29;3.20;99.90
16976;DHT22;8604;48.148;-1.786;2024-03-06T00:30:58;3.20;99.90
16976;DHT22;8604;48.148;-1.786;2024-03-06T00:33:26;3.20;99.90
16976;DHT22;8604;48.148;-1.786;2024-03-06T00:35:56;3.20;99.90
16976;DHT22;8604;48.148;-1.786;2024-03-06T00:38:27;3.20;99.90
16976;DHT22;8604;48.148;-1.786;2024-03-06T00:40:55;3.10;99.90
16976;DHT22;8604;48.148;-1.786;2024-03-06T00:43:26;3.10;99.90
16976;DHT22;8604;48.148;-1.786;2024-03-06T00:45:55;3.10;99.90
16976;DHT22;8604;48.148;-1.786;2024-03-06T00:48:23;3.10;99.90
16976;DHT22;8604;48.148;-1.786;2024-03-06T00:51:06;3.00;99.90
16976;DHT22;8604;48.148;-1.786;2024-03-06T00:53:36;3.00;99.90
16976;DHT22;8604;48.148;-1.786;2024-03-06T00:56:05;3.00;99.90
16976;DHT22;8604;48.148;-1.786;2024-03-06T00:58:35;3.00;99.90
16976;DHT22;8604;48.148;-1.786;2024-03-06T01:01:04;3.00;99.90
16976;DHT22;8604;48.148;-1.786;2024-03-06T01:03:32;3.00;99.90
16976;DHT22;8604;48.148;-1.786;2024-03-06T01:06:15;3.00;99.90
16976;DHT22;8604;48.148;-1.786;2024-03-06T01:08:45;3.00;99.90
16976;DHT22;8604;48.148;-1.786;2024-03-06T01:11:13;3.00;99.90
16976;DHT22;8604;48.148;-1.786;2024-03-06T01:13:46;3.00;99.90
16976;DHT22;8604;48.148;-1.786;2024-03-06T01:16:15;2.90;99.90
16976;DHT22;8604;48.148;-1.786;2024-03-06T01:18:44;2.80;99.90
16976;DHT22;8604;48.148;-1.786;2024-03-06T01:21:12;2.80;99.90
16976;DHT22;8604;48.148;-1.786;2024-03-06T01:23:56;2.70;99.90
16976;DHT22;8604;48.148;-1.786;2024-03-06T01:26:25;2.70;99.90
16976;DHT22;8604;48.148;-1.786;2024-03-06T01:28:53;2.70;99.90
16976;DHT22;8604;48.148;-1.786;2024-03-06T01:31:47;2.60;99.90
16976;DHT22;8604;48.148;-1.786;2024-03-06T01:34:16;2.60;99.90
16976;DHT22;8604;48.148;-1.786;2024-03-06T01:36:44;2.50;99.90
16976;DHT22;8604;48.148;-1.786;2024-03-06T01:39:16;2.50;99.90
16976;DHT22;8604;48.148;-1.786;2024-03-06T01:41:45;2.50;99.90
16976;DHT22;8604;48.148;-1.786;2024-03-06T01:44:14;2.50;99.90
16976;DHT22;8604;48.148;-1.786;2024-03-06T01:46:43;2.50;99.90
16976;DHT22;8604;48.148;-1.786;2024-03-06T01:49:12;2.50;99.90
16976;DHT22;8604;48.148;-1.786;2024-03-06T01:51:51;2.50;99.90
16976;DHT22;8604;48.148;-1.786;2024-03-06T01:54:22;2.50;99.90
16976;DHT22;8604;48.148;-1.786;2024-03-06T01:56:51;2.50;99.90
16976;DHT22;8604;48.148;-1.786;2024-03-06T01:59:21;2.50;99.90
16976;DHT22;8604;48.148;-1.786;2024-03-06T02:02:03;2.50;99.90
16976;DHT22;8604;48.148;-1.786;2024-03-06T02:04:32;2.50;99.90
16976;DHT22;8604;48.148;-1.786;2024-03-06T02:07:01;2.40;99.90
16976;DHT22;8604;48.148;-1.786;2024-03-06T02:09:32;2.40;99.90
16976;DHT22;8604;48.148;-1.786;2024-03-06T02:12:00;2.40;99.90
16976;DHT22;8604;48.148;-1.786;2024-03-06T02:14:29;2.40;99.90
16976;DHT22;8604;48.148;-1.786;2024-03-06T02:16:57;2.40;99.90
16976;DHT22;8604;48.148;-1.786;2024-03-06T02:19:37;2.40;99.90
16976;DHT22;8604;48.148;-1.786;2024-03-06T02:22:08;2.40;99.90
16976;DHT22;8604;48.148;-1.786;2024-03-06T02:24:37;2.40;99.90
16976;DHT22;8604;48.148;-1.786;2024-03-06T02:27:06;2.40;99.90
16976;DHT22;8604;48.148;-1.786;2024-03-06T02:29:35;2.30;99.90
16976;DHT22;8604;48.148;-1.786;2024-03-06T02:32:05;2.30;99.90
16976;DHT22;8604;48.148;-1.786;2024-03-06T02:34:34;2.40;99.90
16976;DHT22;8604;48.148;-1.786;2024-03-06T02:37:02;2.40;99.90
16976;DHT22;8604;48.148;-1.786;2024-03-06T02:39:32;2.40;99.90
16976;DHT22;8604;48.148;-1.786;2024-03-06T02:42:00;2.40;99.90
16976;DHT22;8604;48.148;-1.786;2024-03-06T02:44:30;2.40;99.90
16976;DHT22;8604;48.148;-1.786;2024-03-06T02:46:58;2.30;99.90
16976;DHT22;8604;48.148;-1.786;2024-03-06T02:49:27;2.30;99.90
16976;DHT22;8604;48.148;-1.786;2024-03-06T02:51:55;2.30;99.90
16976;DHT22;8604;48.148;-1.786;2024-03-06T02:54:24;2.20;99.90
16976;DHT22;8604;48.148;-1.786;2024-03-06T02:56:54;2.20;99.90
16976;DHT22;8604;48.148;-1.786;2024-03-06T02:59:22;2.10;99.90
16976;DHT22;8604;48.148;-1.786;2024-03-06T03:01:51;2.10;99.90
16976;DHT22;8604;48.148;-1.786;2024-03-06T03:04:20;2.10;99.90
16976;DHT22;8604;48.148;-1.786;2024-03-06T03:06:48;2.10;99.90
16976;DHT22;8604;48.148;-1.786;2024-03-06T03:09:16;2.10;99.90
16976;DHT22;8604;48.148;-1.786;2024-03-06T03:11:45;2.10;99.90
16976;DHT22;8604;48.148;-1.786;2024-03-06T03:14:15;2.10;99.90
16976;DHT22;8604;48.148;-1.786;2024-03-06T03:16:44;2.10;99.90
16976;DHT22;8604;48.148;-1.786;2024-03-06T03:19:12;2.10;99.90
16976;DHT22;8604;48.148;-1.786;2024-03-06T03:21:43;2.10;99.90
16976;DHT22;8604;48.148;-1.786;2024-03-06T03:24:11;2.10;99.90
16976;DHT22;8604;48.148;-1.786;2024-03-06T03:26:40;2.10;99.90
16976;DHT22;8604;48.148;-1.786;2024-03-06T03:29:09;2.00;99.90
16976;DHT22;8604;48.148;-1.786;2024-03-06T03:31:39;2.00;99.90
16976;DHT22;8604;48.148;-1.786;2024-03-06T03:34:07;2.00;99.90
16976;DHT22;8604;48.148;-1.786;2024-03-06T03:36:40;2.00;99.90
16976;DHT22;8604;48.148;-1.786;2024-03-06T03:39:10;2.00;99.90
16976;DHT22;8604;48.148;-1.786;2024-03-06T03:41:44;2.00;99.90
16976;DHT22;8604;48.148;-1.786;2024-03-06T03:44:13;1.90;99.90
16976;DHT22;8604;48.148;-1.786;2024-03-06T03:46:43;1.90;99.90
16976;DHT22;8604;48.148;-1.786;2024-03-06T03:49:12;1.90;99.90
16976;DHT22;8604;48.148;-1.786;2024-03-06T03:51:41;1.90;99.90
16976;DHT22;8604;48.148;-1.786;2024-03-06T03:54:09;1.90;99.90
16976;DHT22;8604;48.148;-1.786;2024-03-06T03:56:37;1.90;99.90
16976;DHT22;8604;48.148;-1.786;2024-03-06T03:59:06;1.90;99.90
16976;DHT22;8604;48.148;-1.786;2024-03-06T04:01:34;1.80;99.90
16976;DHT22;8604;48.148;-1.786;2024-03-06T04:04:04;1.80;99.90
16976;DHT22;8604;48.148;-1.786;2024-03-06T04:06:34;1.80;99.90
16976;DHT22;8604;48.148;-1.786;2024-03-06T04:09:02;1.80;99.90
16976;DHT22;8604;48.148;-1.786;2024-03-06T04:11:31;1.80;99.90
16976;DHT22;8604;48.148;-1.786;2024-03-06T04:14:02;1.80;99.90
16976;DHT22;8604;48.148;-1.786;2024-03-06T04:16:30;1.70;99.90
16976;DHT22;8604;48.148;-1.786;2024-03-06T04:19:00;1.70;99.90
16976;DHT22;8604;48.148;-1.786;2024-03-06T04:21:30;1.70;99.90
16976;DHT22;8604;48.148;-1.786;2024-03-06T04:23:58;1.70;99.90
16976;DHT22;8604;48.148;-1.786;2024-03-06T04:26:27;1.70;99.90
16976;DHT22;8604;48.148;-1.786;2024-03-06T04:28:55;1.70;99.90
16976;DHT22;8604;48.148;-1.786;2024-03-06T04:31:25;1.70;99.90
16976;DHT22;8604;48.148;-1.786;2024-03-06T04:33:53;1.70;99.90
16976;DHT22;8604;48.148;-1.786;2024-03-06T04:36:21;1.70;99.90
16976;DHT22;8604;48.148;-1.786;2024-03-06T04:38:51;1.70;99.90
16976;DHT22;8604;48.148;-1.786;2024-03-06T04:41:20;1.70;99.90
16976;DHT22;8604;48.148;-1.786;2024-03-06T04:43:48;1.60;99.90
16976;DHT22;8604;48.148;-1.786;2024-03-06T04:46:18;1.60;99.90
16976;DHT22;8604;48.148;-1.786;2024-03-06T04:48:46;1.60;99.90
16976;DHT22;8604;48.148;-1.786;2024-03-06T04:51:15;1.60;99.90
16976;DHT22;8604;48.148;-1.786;2024-03-06T04:53:47;1.60;99.90
16976;DHT22;8604;48.148;-1.786;2024-03-06T04:56:17;1.50;99.90
16976;DHT22;8604;48.148;-1.786;2024-03-06T04:58:48;1.50;99.90
16976;DHT22;8604;48.148;-1.786;2024-03-06T05:01:16;1.50;99.90
16976;DHT22;8604;48.148;-1.786;2024-03-06T05:03:45;1.50;99.90
16976;DHT22;8604;48.148;-1.786;2024-03-06T05:06:31;1.50;99.90
16976;DHT22;8604;48.148;-1.786;2024-03-06T05:09:17;1.50;99.90
16976;DHT22;8604;48.148;-1.786;2024-03-06T05:12:04;1.50;99.90
16976;DHT22;8604;48.148;-1.786;2024-03-06T05:14:50;1.50;99.90
16976;DHT22;8604;48.148;-1.786;2024-03-06T05:17:36;1.40;99.90
16976;DHT22;8604;48.148;-1.786;2024-03-06T05:20:22;1.50;99.90
16976;DHT22;8604;48.148;-1.786;2024-03-06T05:23:08;1.40;99.90
16976;DHT22;8604;48.148;-1.786;2024-03-06T05:25:55;1.40;99.90
16976;DHT22;8604;48.148;-1.786;2024-03-06T05:28:42;1.40;99.90
16976;DHT22;8604;48.148;-1.786;2024-03-06T05:31:28;1.40;99.90
16976;DHT22;8604;48.148;-1.786;2024-03-06T05:34:14;1.40;99.90
16976;DHT22;8604;48.148;-1.786;2024-03-06T05:37:00;1.30;99.90
16976;DHT22;8604;48.148;-1.786;2024-03-06T05:39:49;1.30;99.90
16976;DHT22;8604;48.148;-1.786;2024-03-06T05:42:35;1.30;99.90
16976;DHT22;8604;48.148;-1.786;2024-03-06T05:45:22;1.30;99.90
16976;DHT22;8604;48.148;-1.786;2024-03-06T05:48:08;1.30;99.90
16976;DHT22;8604;48.148;-1.786;2024-03-06T05:50:53;1.30;99.90
16976;DHT22;8604;48.148;-1.786;2024-03-06T05:53:39;1.30;99.90
16976;DHT22;8604;48.148;-1.786;2024-03-06T05:56:26;1.30;99.90
16976;DHT22;8604;48.148;-1.786;2024-03-06T05:59:12;1.30;99.90
16976;DHT22;8604;48.148;-1.786;2024-03-06T06:01:42;1.30;99.90
16976;DHT22;8604;48.148;-1.786;2024-03-06T06:04:11;1.30;99.90
16976;DHT22;8604;48.148;-1.786;2024-03-06T06:06:40;1.30;99.90
16976;DHT22;8604;48.148;-1.786;2024-03-06T06:09:09;1.30;99.90
16976;DHT22;8604;48.148;-1.786;2024-03-06T06:11:43;1.30;99.90
16976;DHT22;8604;48.148;-1.786;2024-03-06T06:14:11;1.30;99.90
16976;DHT22;8604;48.148;-1.786;2024-03-06T06:16:42;1.30;99.90
16976;DHT22;8604;48.148;-1.786;2024-03-06T06:19:10;1.30;99.90
16976;DHT22;8604;48.148;-1.786;2024-03-06T06:21:39;1.30;99.90
16976;DHT22;8604;48.148;-1.786;2024-03-06T06:24:08;1.20;99.90
16976;DHT22;8604;48.148;-1.786;2024-03-06T06:26:37;1.20;99.90
16976;DHT22;8604;48.148;-1.786;2024-03-06T06:29:06;1.20;99.90
16976;DHT22;8604;48.148;-1.786;2024-03-06T06:31:35;1.20;99.90
16976;DHT22;8604;48.148;-1.786;2024-03-06T06:34:05;1.20;99.90
16976;DHT22;8604;48.148;-1.786;2024-03-06T06:36:35;1.20;99.90
16976;DHT22;8604;48.148;-1.786;2024-03-06T06:39:05;1.20;99.90
16976;DHT22;8604;48.148;-1.786;2024-03-06T06:41:34;1.20;99.90
16976;DHT22;8604;48.148;-1.786;2024-03-06T06:44:04;1.20;99.90
16976;DHT22;8604;48.148;-1.786;2024-03-06T06:47:02;1.10;99.90
16976;DHT22;8604;48.148;-1.786;2024-03-06T16:43:28;13.00;99.90
16976;DHT22;8604;48.148;-1.786;2024-03-06T16:46:17;12.90;99.90
16976;DHT22;8604;48.148;-1.786;2024-03-06T16:48:46;13.00;99.90
16976;DHT22;8604;48.148;-1.786;2024-03-06T16:51:17;12.90;99.90
16976;DHT22;8604;48.148;-1.786;2024-03-06T16:53:47;12.90;99.90
16976;DHT22;8604;48.148;-1.786;2024-03-06T16:56:16;12.90;99.90
16976;DHT22;8604;48.148;-1.786;2024-03-06T16:58:47;12.80;99.90
16976;DHT22;8604;48.148;-1.786;2024-03-06T17:01:16;12.70;99.90
16976;DHT22;8604;48.148;-1.786;2024-03-06T17:03:46;12.70;99.90
16976;DHT22;8604;48.148;-1.786;2024-03-06T17:06:16;12.70;99.90
16976;DHT22;8604;48.148;-1.786;2024-03-06T17:08:45;12.70;99.90
16976;DHT22;8604;48.148;-1.786;2024-03-06T17:11:14;12.70;99.90
16976;DHT22;8604;48.148;-1.786;2024-03-06T17:13:43;12.70;99.90
16976;DHT22;8604;48.148;-1.786;2024-03-06T17:16:13;12.60;99.90
16976;DHT22;8604;48.148;-1.786;2024-03-06T17:18:42;12.60;99.90
16976;DHT22;8604;48.148;-1.786;2024-03-06T17:21:10;12.60;99.90
16976;DHT22;8604;48.148;-1.786;2024-03-06T17:23:39;12.50;99.90
16976;DHT22;8604;48.148;-1.786;2024-03-06T17:26:08;12.50;99.90
16976;DHT22;8604;48.148;-1.786;2024-03-06T17:28:39;12.50;99.90
16976;DHT22;8604;48.148;-1.786;2024-03-06T17:31:09;12.50;99.90
16976;DHT22;8604;48.148;-1.786;2024-03-06T17:33:40;12.50;99.90
16976;DHT22;8604;48.148;-1.786;2024-03-06T17:36:08;12.40;99.90
16976;DHT22;8604;48.148;-1.786;2024-03-06T17:38:37;12.40;99.90
16976;DHT22;8604;48.148;-1.786;2024-03-06T17:41:08;12.30;99.90
16976;DHT22;8604;48.148;-1.786;2024-03-06T17:43:38;12.30;99.90
16976;DHT22;8604;48.148;-1.786;2024-03-06T17:46:07;12.30;99.90
16976;DHT22;8604;48.148;-1.786;2024-03-06T17:48:36;12.20;99.90
16976;DHT22;8604;48.148;-1.786;2024-03-06T17:51:06;12.20;99.90
16976;DHT22;8604;48.148;-1.786;2024-03-06T17:53:35;12.10;99.90
16976;DHT22;8604;48.148;-1.786;2024-03-06T17:56:04;12.10;99.90
16976;DHT22;8604;48.148;-1.786;2024-03-06T17:58:33;12.00;99.90
16976;DHT22;8604;48.148;-1.786;2024-03-06T18:01:02;11.90;99.90
16976;DHT22;8604;48.148;-1.786;2024-03-06T18:03:31;11.90;99.90
16976;DHT22;8604;48.148;-1.786;2024-03-06T18:06:01;11.80;99.90
16976;DHT22;8604;48.148;-1.786;2024-03-06T18:08:31;11.80;99.90
16976;DHT22;8604;48.148;-1.786;2024-03-06T18:11:00;11.80;99.90
16976;DHT22;8604;48.148;-1.786;2024-03-06T18:13:29;11.80;99.90
16976;DHT22;8604;48.148;-1.786;2024-03-06T18:15:59;11.80;99.90
16976;DHT22;8604;48.148;-1.786;2024-03-06T18:18:30;11.70;99.90
16976;DHT22;8604;48.148;-1.786;2024-03-06T18:21:01;11.70;99.90
16976;DHT22;8604;48.148;-1.786;2024-03-06T18:23:32;11.70;99.90
16976;DHT22;8604;48.148;-1.786;2024-03-06T18:26:01;11.60;99.90
16976;DHT22;8604;48.148;-1.786;2024-03-06T18:28:31;11.60;99.90
16976;DHT22;8604;48.148;-1.786;2024-03-06T18:31:03;11.60;99.90
